sensor_id;sensor_type;location;lat;lon;timestamp;temperature;humidity
7341;DHT22;6870;50.944;6.932;2023-05-07T00:01:29;22.40;36.90
7341;DHT22;6870;50.944;6.932;2023-05-07T00:03:59;22.40;37.00
7341;DHT22;6870;50.944;6.932;2023-05-07T00:06:28;22.80;37.50
7341;DHT22;6870;50.944;6.932;2023-05-07T00:08:56;22.30;37.00
7341;DHT22;6870;50.944;6.932;2023-05-07T00:11:24;22.60;37.20
7341;DHT22;6870;50.944;6.932;2023-05-07T00:13:53;22.20;36.90
7341;DHT22;6870;50.944;6.932;2023-05-07T00:16:21;22.20;36.90
7341;DHT22;6870;50.944;6.932;2023-05-07T00:18:49;22.20;37.00
7341;DHT22;6870;50.944;6.932;2023-05-07T00:21:19;22.20;37.10
7341;DHT22;6870;50.944;6.932;2023-05-07T00:23:48;22.40;37.00
7341;DHT22;6870;50.944;6.932;2023-05-07T00:26:16;22.30;37.20
7341;DHT22;6870;50.944;6.932;2023-05-07T00:28:44;22.70;37.60
7341;DHT22;6870;50.944;6.932;2023-05-07T00:31:12;22.30;38.00
7341;DHT22;6870;50.944;6.932;2023-05-07T00:33:40;22.30;37.10
7341;DHT22;6870;50.944;6.932;2023-05-07T00:36:08;22.90;37.40
7341;DHT22;6870;50.944;6.932;2023-05-07T00:38:38;22.30;37.00
7341;DHT22;6870;50.944;6.932;2023-05-07T00:41:06;22.50;37.40
7341;DHT22;6870;50.944;6.932;2023-05-07T00:43:34;22.20;36.80
7341;DHT22;6870;50.944;6.932;2023-05-07T00:46:02;22.70;37.50
7341;DHT22;6870;50.944;6.932;2023-05-07T00:48:30;22.20;37.00
7341;DHT22;6870;50.944;6.932;2023-05-07T00:50:58;22.40;37.20
7341;DHT22;6870;50.944;6.932;2023-05-07T00:53:26;22.20;36.90
7341;DHT22;6870;50.944;6.932;2023-05-07T00:55:56;22.50;37.50
7341;DHT22;6870;50.944;6.932;2023-05-07T00:58:24;22.40;37.40
7341;DHT22;6870;50.944;6.932;2023-05-07T01:00:52;22.20;37.30
7341;DHT22;6870;50.944;6.932;2023-05-07T01:03:21;22.60;37.70
7341;DHT22;6870;50.944;6.932;2023-05-07T01:05:50;22.10;37.20
7341;DHT22;6870;50.944;6.932;2023-05-07T01:08:19;22.60;37.90
7341;DHT22;6870;50.944;6.932;2023-05-07T01:10:48;22.30;37.50
7341;DHT22;6870;50.944;6.932;2023-05-07T01:13:18;22.60;37.70
7341;DHT22;6870;50.944;6.932;2023-05-07T01:15:47;22.50;37.70
7341;DHT22;6870;50.944;6.932;2023-05-07T01:18:15;22.20;37.40
7341;DHT22;6870;50.944;6.932;2023-05-07T01:20:43;22.30;37.70
7341;DHT22;6870;50.944;6.932;2023-05-07T01:23:14;22.30;37.60
7341;DHT22;6870;50.944;6.932;2023-05-07T01:25:43;22.10;37.50
7341;DHT22;6870;50.944;6.932;2023-05-07T01:28:10;22.10;37.50
7341;DHT22;6870;50.944;6.932;2023-05-07T01:30:42;22.20;37.30
7341;DHT22;6870;50.944;6.932;2023-05-07T01:33:14;22.30;37.60
7341;DHT22;6870;50.944;6.932;2023-05-07T01:35:46;22.40;37.70
7341;DHT22;6870;50.944;6.932;2023-05-07T01:38:17;22.10;37.50
7341;DHT22;6870;50.944;6.932;2023-05-07T01:40:46;22.10;37.50
7341;DHT22;6870;50.944;6.932;2023-05-07T01:43:14;22.30;37.60
7341;DHT22;6870;50.944;6.932;2023-05-07T01:45:42;22.70;38.00
7341;DHT22;6870;50.944;6.932;2023-05-07T01:48:11;22.50;37.90
7341;DHT22;6870;50.944;6.932;2023-05-07T01:50:41;22.50;37.80
7341;DHT22;6870;50.944;6.932;2023-05-07T01:53:09;22.70;38.20
7341;DHT22;6870;50.944;6.932;2023-05-07T01:55:38;22.60;37.90
7341;DHT22;6870;50.944;6.932;2023-05-07T01:58:06;22.20;38.40
7341;DHT22;6870;50.944;6.932;2023-05-07T02:00:35;22.60;38.00
7341;DHT22;6870;50.944;6.932;2023-05-07T02:03:03;22.30;37.60
7341;DHT22;6870;50.944;6.932;2023-05-07T02:05:31;22.10;37.50
7341;DHT22;6870;50.944;6.932;2023-05-07T02:07:59;22.30;37.80
7341;DHT22;6870;50.944;6.932;2023-05-07T02:10:27;22.10;37.60
7341;DHT22;6870;50.944;6.932;2023-05-07T02:12:56;22.60;38.20
7341;DHT22;6870;50.944;6.932;2023-05-07T02:15:24;22.60;38.00
7341;DHT22;6870;50.944;6.932;2023-05-07T02:18:01;22.60;38.30
7341;DHT22;6870;50.944;6.932;2023-05-07T02:20:29;22.60;38.20
7341;DHT22;6870;50.944;6.932;2023-05-07T02:22:57;22.30;38.10
7341;DHT22;6870;50.944;6.932;2023-05-07T02:25:25;22.50;38.20
7341;DHT22;6870;50.944;6.932;2023-05-07T02:27:53;22.20;37.90
7341;DHT22;6870;50.944;6.932;2023-05-07T02:30:24;22.20;37.50
7341;DHT22;6870;50.944;6.932;2023-05-07T02:32:53;22.10;37.80
7341;DHT22;6870;50.944;6.932;2023-05-07T02:35:21;22.20;37.90
7341;DHT22;6870;50.944;6.932;2023-05-07T02:37:49;22.10;37.90
7341;DHT22;6870;50.944;6.932;2023-05-07T02:40:17;22.00;38.20
7341;DHT22;6870;50.944;6.932;2023-05-07T02:42:46;22.20;38.00
7341;DHT22;6870;50.944;6.932;2023-05-07T02:45:14;22.20;38.50
7341;DHT22;6870;50.944;6.932;2023-05-07T02:47:44;22.20;38.00
7341;DHT22;6870;50.944;6.932;2023-05-07T02:50:12;22.30;38.30
7341;DHT22;6870;50.944;6.932;2023-05-07T02:52:40;22.20;38.30
7341;DHT22;6870;50.944;6.932;2023-05-07T02:55:08;22.10;38.00
7341;DHT22;6870;50.944;6.932;2023-05-07T02:57:37;22.80;38.70
7341;DHT22;6870;50.944;6.932;2023-05-07T03:00:13;22.30;38.20
7341;DHT22;6870;50.944;6.932;2023-05-07T03:02:43;22.50;38.50
7341;DHT22;6870;50.944;6.932;2023-05-07T03:05:11;22.10;38.10
7341;DHT22;6870;50.944;6.932;2023-05-07T03:07:40;22.10;38.00
7341;DHT22;6870;50.944;6.932;2023-05-07T03:10:11;22.70;38.80
7341;DHT22;6870;50.944;6.932;2023-05-07T03:12:39;22.30;38.40
7341;DHT22;6870;50.944;6.932;2023-05-07T03:15:09;22.10;38.20
7341;DHT22;6870;50.944;6.932;2023-05-07T03:17:38;22.10;38.10
7341;DHT22;6870;50.944;6.932;2023-05-07T03:20:08;22.30;38.40
7341;DHT22;6870;50.944;6.932;2023-05-07T03:22:37;22.30;38.40
7341;DHT22;6870;50.944;6.932;2023-05-07T03:25:07;22.30;38.50
7341;DHT22;6870;50.944;6.932;2023-05-07T03:27:36;22.20;38.50
7341;DHT22;6870;50.944;6.932;2023-05-07T03:30:05;22.30;38.70
7341;DHT22;6870;50.944;6.932;2023-05-07T03:32:35;22.30;38.60
7341;DHT22;6870;50.944;6.932;2023-05-07T03:35:04;22.50;38.90
7341;DHT22;6870;50.944;6.932;2023-05-07T03:37:34;22.20;39.50
7341;DHT22;6870;50.944;6.932;2023-05-07T03:40:02;22.20;38.50
7341;DHT22;6870;50.944;6.932;2023-05-07T03:42:30;22.30;38.80
7341;DHT22;6870;50.944;6.932;2023-05-07T03:44:58;22.60;39.20
7341;DHT22;6870;50.944;6.932;2023-05-07T03:47:26;22.30;39.20
7341;DHT22;6870;50.944;6.932;2023-05-07T03:49:55;22.30;39.40
7341;DHT22;6870;50.944;6.932;2023-05-07T03:52:23;22.60;39.00
7341;DHT22;6870;50.944;6.932;2023-05-07T03:54:54;22.20;38.50
7341;DHT22;6870;50.944;6.932;2023-05-07T03:57:22;22.30;39.20
7341;DHT22;6870;50.944;6.932;2023-05-07T03:59:50;22.20;39.10
7341;DHT22;6870;50.944;6.932;2023-05-07T04:02:18;22.20;39.20
7341;DHT22;6870;50.944;6.932;2023-05-07T04:04:47;22.20;38.40
7341;DHT22;6870;50.944;6.932;2023-05-07T04:07:16;22.10;38.80
7341;DHT22;6870;50.944;6.932;2023-05-07T04:09:44;22.20;38.90
7341;DHT22;6870;50.944;6.932;2023-05-07T04:12:13;22.20;38.70
7341;DHT22;6870;50.944;6.932;2023-05-07T04:14:42;22.20;39.00
7341;DHT22;6870;50.944;6.932;2023-05-07T04:17:10;22.20;39.20
7341;DHT22;6870;50.944;6.932;2023-05-07T04:19:38;22.20;39.20
7341;DHT22;6870;50.944;6.932;2023-05-07T04:22:11;22.10;39.20
7341;DHT22;6870;50.944;6.932;2023-05-07T04:24:39;22.20;39.10
7341;DHT22;6870;50.944;6.932;2023-05-07T04:27:07;22.40;39.10
7341;DHT22;6870;50.944;6.932;2023-05-07T04:29:37;22.60;39.10
7341;DHT22;6870;50.944;6.932;2023-05-07T04:32:09;22.10;38.50
7341;DHT22;6870;50.944;6.932;2023-05-07T04:34:37;22.20;38.30
7341;DHT22;6870;50.944;6.932;2023-05-07T04:37:05;22.30;38.70
7341;DHT22;6870;50.944;6.932;2023-05-07T04:39:33;22.40;38.70
7341;DHT22;6870;50.944;6.932;2023-05-07T04:42:02;22.30;38.60
7341;DHT22;6870;50.944;6.932;2023-05-07T04:44:30;22.20;38.50
7341;DHT22;6870;50.944;6.932;2023-05-07T04:46:59;22.30;38.70
7341;DHT22;6870;50.944;6.932;2023-05-07T04:49:28;22.60;39.10
7341;DHT22;6870;50.944;6.932;2023-05-07T04:51:55;22.50;38.10
7341;DHT22;6870;50.944;6.932;2023-05-07T04:54:23;22.70;39.10
7341;DHT22;6870;50.944;6.932;2023-05-07T04:56:51;22.70;38.50
7341;DHT22;6870;50.944;6.932;2023-05-07T04:59:19;22.30;38.80
7341;DHT22;6870;50.944;6.932;2023-05-07T05:01:47;22.20;38.60
7341;DHT22;6870;50.944;6.932;2023-05-07T05:04:17;22.30;38.70
7341;DHT22;6870;50.944;6.932;2023-05-07T05:06:45;22.30;38.80
7341;DHT22;6870;50.944;6.932;2023-05-07T05:09:13;22.30;38.50
7341;DHT22;6870;50.944;6.932;2023-05-07T05:11:42;22.30;38.30
7341;DHT22;6870;50.944;6.932;2023-05-07T05:14:10;22.90;39.00
7341;DHT22;6870;50.944;6.932;2023-05-07T05:16:38;22.40;38.40
7341;DHT22;6870;50.944;6.932;2023-05-07T05:19:06;22.70;38.60
7341;DHT22;6870;50.944;6.932;2023-05-07T05:21:36;22.50;38.30
7341;DHT22;6870;50.944;6.932;2023-05-07T05:24:04;22.90;39.10
7341;DHT22;6870;50.944;6.932;2023-05-07T05:26:32;22.70;38.60
7341;DHT22;6870;50.944;6.932;2023-05-07T05:29:00;22.40;38.30
7341;DHT22;6870;50.944;6.932;2023-05-07T05:31:28;22.40;38.20
7341;DHT22;6870;50.944;6.932;2023-05-07T05:33:56;22.80;38.70
7341;DHT22;6870;50.944;6.932;2023-05-07T05:36:24;22.60;38.50
7341;DHT22;6870;50.944;6.932;2023-05-07T05:38:54;22.70;38.80
7341;DHT22;6870;50.944;6.932;2023-05-07T05:41:23;22.90;38.90
7341;DHT22;6870;50.944;6.932;2023-05-07T05:43:51;22.90;38.70
7341;DHT22;6870;50.944;6.932;2023-05-07T05:46:19;22.50;38.90
7341;DHT22;6870;50.944;6.932;2023-05-07T05:48:48;22.60;39.00
7341;DHT22;6870;50.944;6.932;2023-05-07T05:51:16;22.90;39.20
7341;DHT22;6870;50.944;6.932;2023-05-07T05:53:44;22.70;38.90
7341;DHT22;6870;50.944;6.932;2023-05-07T05:56:13;23.00;39.20
7341;DHT22;6870;50.944;6.932;2023-05-07T05:58:41;22.90;39.10
7341;DHT22;6870;50.944;6.932;2023-05-07T06:01:09;22.90;38.80
7341;DHT22;6870;50.944;6.932;2023-05-07T06:03:38;22.60;38.60
7341;DHT22;6870;50.944;6.932;2023-05-07T06:06:06;23.20;39.50
7341;DHT22;6870;50.944;6.932;2023-05-07T06:08:34;23.00;39.20
7341;DHT22;6870;50.944;6.932;2023-05-07T06:11:02;23.10;38.90
7341;DHT22;6870;50.944;6.932;2023-05-07T06:13:32;23.00;38.70
7341;DHT22;6870;50.944;6.932;2023-05-07T06:16:00;22.80;38.10
7341;DHT22;6870;50.944;6.932;2023-05-07T06:18:28;22.50;37.20
7341;DHT22;6870;50.944;6.932;2023-05-07T06:20:56;22.80;37.20
7341;DHT22;6870;50.944;6.932;2023-05-07T06:23:24;22.80;36.90
7341;DHT22;6870;50.944;6.932;2023-05-07T06:25:52;22.50;36.40
7341;DHT22;6870;50.944;6.932;2023-05-07T06:28:20;22.80;36.40
7341;DHT22;6870;50.944;6.932;2023-05-07T06:30:49;22.50;35.50
7341;DHT22;6870;50.944;6.932;2023-05-07T06:33:17;22.90;35.70
7341;DHT22;6870;50.944;6.932;2023-05-07T06:35:46;22.80;35.20
7341;DHT22;6870;50.944;6.932;2023-05-07T06:38:14;22.70;34.80
7341;DHT22;6870;50.944;6.932;2023-05-07T06:40:42;22.90;34.80
7341;DHT22;6870;50.944;6.932;2023-05-07T06:43:10;22.90;34.70
7341;DHT22;6870;50.944;6.932;2023-05-07T06:45:38;22.80;34.40
7341;DHT22;6870;50.944;6.932;2023-05-07T06:48:08;22.60;33.90
7341;DHT22;6870;50.944;6.932;2023-05-07T06:50:36;22.90;34.00
7341;DHT22;6870;50.944;6.932;2023-05-07T06:53:04;23.00;33.90
7341;DHT22;6870;50.944;6.932;2023-05-07T06:55:32;23.10;34.60
7341;DHT22;6870;50.944;6.932;2023-05-07T06:58:00;23.20;33.60
7341;DHT22;6870;50.944;6.932;2023-05-07T07:00:28;23.10;33.40
7341;DHT22;6870;50.944;6.932;2023-05-07T07:02:56;22.70;32.60
7341;DHT22;6870;50.944;6.932;2023-05-07T07:05:27;23.10;33.20
7341;DHT22;6870;50.944;6.932;2023-05-07T07:07:55;23.00;33.00
7341;DHT22;6870;50.944;6.932;2023-05-07T07:10:23;23.00;32.90
7341;DHT22;6870;50.944;6.932;2023-05-07T07:12:51;23.00;32.70
7341;DHT22;6870;50.944;6.932;2023-05-07T07:15:20;23.00;32.40
7341;DHT22;6870;50.944;6.932;2023-05-07T07:17:48;22.60;32.20
7341;DHT22;6870;50.944;6.932;2023-05-07T07:20:16;22.70;32.30
7341;DHT22;6870;50.944;6.932;2023-05-07T07:22:46;22.90;32.30
7341;DHT22;6870;50.944;6.932;2023-05-07T07:25:14;22.80;32.50
7341;DHT22;6870;50.944;6.932;2023-05-07T07:27:42;23.20;32.60
7341;DHT22;6870;50.944;6.932;2023-05-07T07:30:10;22.60;32.10
7341;DHT22;6870;50.944;6.932;2023-05-07T07:32:39;23.00;32.50
7341;DHT22;6870;50.944;6.932;2023-05-07T07:35:08;22.70;31.90
7341;DHT22;6870;50.944;6.932;2023-05-07T07:37:36;23.00;32.30
7341;DHT22;6870;50.944;6.932;2023-05-07T07:40:07;23.00;32.60
7341;DHT22;6870;50.944;6.932;2023-05-07T07:42:36;23.00;32.70
7341;DHT22;6870;50.944;6.932;2023-05-07T07:45:05;23.10;34.00
7341;DHT22;6870;50.944;6.932;2023-05-07T07:47:34;23.00;33.80
7341;DHT22;6870;50.944;6.932;2023-05-07T07:50:03;23.10;34.00
7341;DHT22;6870;50.944;6.932;2023-05-07T07:52:32;23.00;32.20
7341;DHT22;6870;50.944;6.932;2023-05-07T07:55:00;22.90;32.10
7341;DHT22;6870;50.944;6.932;2023-05-07T07:57:30;22.80;32.70
7341;DHT22;6870;50.944;6.932;2023-05-07T07:59:58;23.10;32.50
7341;DHT22;6870;50.944;6.932;2023-05-07T08:02:27;23.00;32.20
7341;DHT22;6870;50.944;6.932;2023-05-07T08:04:55;23.20;32.20
7341;DHT22;6870;50.944;6.932;2023-05-07T08:07:23;23.00;31.90
7341;DHT22;6870;50.944;6.932;2023-05-07T08:09:51;23.60;32.40
7341;DHT22;6870;50.944;6.932;2023-05-07T08:12:19;23.40;32.10
7341;DHT22;6870;50.944;6.932;2023-05-07T08:14:49;23.20;31.90
7341;DHT22;6870;50.944;6.932;2023-05-07T08:17:17;23.10;31.80
7341;DHT22;6870;50.944;6.932;2023-05-07T08:19:45;23.30;32.10
7341;DHT22;6870;50.944;6.932;2023-05-07T08:22:13;23.40;32.10
7341;DHT22;6870;50.944;6.932;2023-05-07T08:24:41;23.60;32.50
7341;DHT22;6870;50.944;6.932;2023-05-07T08:27:09;23.70;33.20
7341;DHT22;6870;50.944;6.932;2023-05-07T08:29:37;23.70;33.30
7341;DHT22;6870;50.944;6.932;2023-05-07T08:32:07;23.40;32.80
7341;DHT22;6870;50.944;6.932;2023-05-07T08:34:35;23.70;33.40
7341;DHT22;6870;50.944;6.932;2023-05-07T08:37:03;23.70;33.50
7341;DHT22;6870;50.944;6.932;2023-05-07T08:39:31;23.70;33.50
7341;DHT22;6870;50.944;6.932;2023-05-07T08:42:00;23.70;33.50
7341;DHT22;6870;50.944;6.932;2023-05-07T08:44:33;23.70;33.50
7341;DHT22;6870;50.944;6.932;2023-05-07T08:47:02;23.70;33.40
7341;DHT22;6870;50.944;6.932;2023-05-07T08:49:33;23.90;34.20
7341;DHT22;6870;50.944;6.932;2023-05-07T08:52:01;23.70;33.10
7341;DHT22;6870;50.944;6.932;2023-05-07T08:54:30;23.90;33.20
7341;DHT22;6870;50.944;6.932;2023-05-07T08:56:59;23.50;32.70
7341;DHT22;6870;50.944;6.932;2023-05-07T08:59:27;23.90;33.20
7341;DHT22;6870;50.944;6.932;2023-05-07T09:01:55;23.90;33.10
7341;DHT22;6870;50.944;6.932;2023-05-07T09:04:23;23.70;33.00
7341;DHT22;6870;50.944;6.932;2023-05-07T09:06:53;23.90;33.20
7341;DHT22;6870;50.944;6.932;2023-05-07T09:09:22;23.90;33.10
7341;DHT22;6870;50.944;6.932;2023-05-07T09:11:56;23.80;33.00
7341;DHT22;6870;50.944;6.932;2023-05-07T09:14:25;23.80;32.90
7341;DHT22;6870;50.944;6.932;2023-05-07T09:16:53;23.50;32.50
7341;DHT22;6870;50.944;6.932;2023-05-07T09:19:25;23.50;32.20
7341;DHT22;6870;50.944;6.932;2023-05-07T09:22:03;24.00;32.90
7341;DHT22;6870;50.944;6.932;2023-05-07T09:24:33;23.90;32.70
7341;DHT22;6870;50.944;6.932;2023-05-07T09:27:04;23.90;32.70
7341;DHT22;6870;50.944;6.932;2023-05-07T09:29:33;23.50;31.80
7341;DHT22;6870;50.944;6.932;2023-05-07T09:32:02;23.80;31.20
7341;DHT22;6870;50.944;6.932;2023-05-07T09:34:31;23.90;32.00
7341;DHT22;6870;50.944;6.932;2023-05-07T09:37:03;23.70;31.10
7341;DHT22;6870;50.944;6.932;2023-05-07T09:39:42;23.50;31.40
7341;DHT22;6870;50.944;6.932;2023-05-07T09:42:10;23.60;32.20
7341;DHT22;6870;50.944;6.932;2023-05-07T09:44:39;23.90;31.20
7341;DHT22;6870;50.944;6.932;2023-05-07T09:47:08;23.70;31.40
7341;DHT22;6870;50.944;6.932;2023-05-07T09:49:38;23.90;31.60
7341;DHT22;6870;50.944;6.932;2023-05-07T09:52:10;23.90;31.50
7341;DHT22;6870;50.944;6.932;2023-05-07T09:54:39;23.90;31.20
7341;DHT22;6870;50.944;6.932;2023-05-07T09:57:11;23.70;31.00
7341;DHT22;6870;50.944;6.932;2023-05-07T09:59:40;23.80;32.00
7341;DHT22;6870;50.944;6.932;2023-05-07T10:02:11;23.80;30.20
7341;DHT22;6870;50.944;6.932;2023-05-07T10:04:40;23.90;30.60
7341;DHT22;6870;50.944;6.932;2023-05-07T10:07:10;23.90;30.30
7341;DHT22;6870;50.944;6.932;2023-05-07T10:09:39;23.80;30.60
7341;DHT22;6870;50.944;6.932;2023-05-07T10:12:09;23.80;29.90
7341;DHT22;6870;50.944;6.932;2023-05-07T10:14:37;23.80;30.10
7341;DHT22;6870;50.944;6.932;2023-05-07T10:17:06;23.50;29.70
7341;DHT22;6870;50.944;6.932;2023-05-07T10:19:36;23.80;30.20
7341;DHT22;6870;50.944;6.932;2023-05-07T10:22:06;23.90;30.10
7341;DHT22;6870;50.944;6.932;2023-05-07T10:24:36;23.90;29.70
7341;DHT22;6870;50.944;6.932;2023-05-07T10:27:08;24.10;30.00
7341;DHT22;6870;50.944;6.932;2023-05-07T10:29:45;23.80;29.60
7341;DHT22;6870;50.944;6.932;2023-05-07T10:32:40;23.60;29.50
7341;DHT22;6870;50.944;6.932;2023-05-07T10:35:13;23.80;29.50
7341;DHT22;6870;50.944;6.932;2023-05-07T10:37:44;24.00;29.70
7341;DHT22;6870;50.944;6.932;2023-05-07T10:40:14;24.00;30.00
7341;DHT22;6870;50.944;6.932;2023-05-07T10:42:54;23.70;29.20
7341;DHT22;6870;50.944;6.932;2023-05-07T10:45:24;24.00;29.90
7341;DHT22;6870;50.944;6.932;2023-05-07T10:48:09;23.80;29.40
7341;DHT22;6870;50.944;6.932;2023-05-07T10:50:42;23.90;29.20
7341;DHT22;6870;50.944;6.932;2023-05-07T10:53:25;24.10;28.90
7341;DHT22;6870;50.944;6.932;2023-05-07T10:56:26;24.10;28.40
7341;DHT22;6870;50.944;6.932;2023-05-07T10:58:54;24.20;28.70
7341;DHT22;6870;50.944;6.932;2023-05-07T11:01:49;24.00;28.50
7341;DHT22;6870;50.944;6.932;2023-05-07T11:04:17;23.80;28.50
7341;DHT22;6870;50.944;6.932;2023-05-07T11:07:31;23.90;28.00
7341;DHT22;6870;50.944;6.932;2023-05-07T11:10:03;24.20;28.20
7341;DHT22;6870;50.944;6.932;2023-05-07T11:12:55;24.30;28.80
7341;DHT22;6870;50.944;6.932;2023-05-07T11:15:38;23.90;28.40
7341;DHT22;6870;50.944;6.932;2023-05-07T11:18:08;23.90;28.50
7341;DHT22;6870;50.944;6.932;2023-05-07T11:20:49;24.20;28.60
7341;DHT22;6870;50.944;6.932;2023-05-07T11:23:56;24.30;28.90
7341;DHT22;6870;50.944;6.932;2023-05-07T11:26:29;24.40;28.40
7341;DHT22;6870;50.944;6.932;2023-05-07T11:29:00;24.50;29.00
7341;DHT22;6870;50.944;6.932;2023-05-07T11:31:28;24.10;28.90
7341;DHT22;6870;50.944;6.932;2023-05-07T11:33:57;24.20;28.70
7341;DHT22;6870;50.944;6.932;2023-05-07T11:36:30;24.30;29.00
7341;DHT22;6870;50.944;6.932;2023-05-07T11:38:59;24.10;28.70
7341;DHT22;6870;50.944;6.932;2023-05-07T11:41:34;24.10;28.90
7341;DHT22;6870;50.944;6.932;2023-05-07T11:44:05;24.10;28.90
7341;DHT22;6870;50.944;6.932;2023-05-07T11:46:33;24.20;29.10
7341;DHT22;6870;50.944;6.932;2023-05-07T11:49:01;24.10;28.70
7341;DHT22;6870;50.944;6.932;2023-05-07T11:51:30;24.10;28.90
7341;DHT22;6870;50.944;6.932;2023-05-07T11:53:58;24.20;29.00
7341;DHT22;6870;50.944;6.932;2023-05-07T11:56:26;24.30;28.90
7341;DHT22;6870;50.944;6.932;2023-05-07T11:58:54;24.00;28.80
7341;DHT22;6870;50.944;6.932;2023-05-07T12:01:23;24.10;28.70
7341;DHT22;6870;50.944;6.932;2023-05-07T12:03:51;24.00;28.60
7341;DHT22;6870;50.944;6.932;2023-05-07T12:06:20;24.00;28.10
7341;DHT22;6870;50.944;6.932;2023-05-07T12:08:48;24.00;28.30
7341;DHT22;6870;50.944;6.932;2023-05-07T12:11:23;24.10;27.60
7341;DHT22;6870;50.944;6.932;2023-05-07T12:13:53;24.30;27.70
7341;DHT22;6870;50.944;6.932;2023-05-07T12:16:26;24.10;27.50
7341;DHT22;6870;50.944;6.932;2023-05-07T12:18:55;24.00;27.30
7341;DHT22;6870;50.944;6.932;2023-05-07T12:21:25;23.90;27.20
7341;DHT22;6870;50.944;6.932;2023-05-07T12:23:53;24.00;26.90
7341;DHT22;6870;50.944;6.932;2023-05-07T12:26:22;24.00;27.30
7341;DHT22;6870;50.944;6.932;2023-05-07T12:28:51;23.90;27.30
7341;DHT22;6870;50.944;6.932;2023-05-07T12:31:19;24.10;27.50
7341;DHT22;6870;50.944;6.932;2023-05-07T12:33:48;23.90;27.40
7341;DHT22;6870;50.944;6.932;2023-05-07T12:36:17;23.70;27.30
7341;DHT22;6870;50.944;6.932;2023-05-07T12:38:45;24.00;27.60
7341;DHT22;6870;50.944;6.932;2023-05-07T12:41:13;24.00;27.60
7341;DHT22;6870;50.944;6.932;2023-05-07T12:43:44;23.90;27.70
7341;DHT22;6870;50.944;6.932;2023-05-07T12:46:12;23.90;27.80
7341;DHT22;6870;50.944;6.932;2023-05-07T12:48:44;23.80;27.70
7341;DHT22;6870;50.944;6.932;2023-05-07T12:51:15;24.10;27.90
7341;DHT22;6870;50.944;6.932;2023-05-07T12:53:43;24.00;27.40
7341;DHT22;6870;50.944;6.932;2023-05-07T12:56:11;23.80;27.80
7341;DHT22;6870;50.944;6.932;2023-05-07T12:58:40;24.00;27.70
7341;DHT22;6870;50.944;6.932;2023-05-07T13:01:08;24.00;28.00
7341;DHT22;6870;50.944;6.932;2023-05-07T13:03:38;23.90;27.90
7341;DHT22;6870;50.944;6.932;2023-05-07T13:06:08;23.90;28.00
7341;DHT22;6870;50.944;6.932;2023-05-07T13:08:41;24.10;28.10
7341;DHT22;6870;50.944;6.932;2023-05-07T13:11:11;23.90;28.10
7341;DHT22;6870;50.944;6.932;2023-05-07T13:13:40;23.90;28.00
7341;DHT22;6870;50.944;6.932;2023-05-07T13:16:10;24.10;28.20
7341;DHT22;6870;50.944;6.932;2023-05-07T13:18:40;23.80;28.00
7341;DHT22;6870;50.944;6.932;2023-05-07T13:21:10;23.90;27.90
7341;DHT22;6870;50.944;6.932;2023-05-07T13:23:41;23.90;28.20
7341;DHT22;6870;50.944;6.932;2023-05-07T13:26:09;23.80;28.20
7341;DHT22;6870;50.944;6.932;2023-05-07T13:28:52;23.90;28.20
7341;DHT22;6870;50.944;6.932;2023-05-07T13:31:20;24.00;28.30
7341;DHT22;6870;50.944;6.932;2023-05-07T13:33:48;23.80;28.20
7341;DHT22;6870;50.944;6.932;2023-05-07T13:36:16;23.90;28.30
7341;DHT22;6870;50.944;6.932;2023-05-07T13:38:46;23.80;28.20
7341;DHT22;6870;50.944;6.932;2023-05-07T13:41:14;23.90;28.30
7341;DHT22;6870;50.944;6.932;2023-05-07T13:43:42;23.90;28.30
7341;DHT22;6870;50.944;6.932;2023-05-07T13:46:10;23.80;28.30
7341;DHT22;6870;50.944;6.932;2023-05-07T13:48:38;24.20;28.60
7341;DHT22;6870;50.944;6.932;2023-05-07T13:51:06;24.00;28.50
7341;DHT22;6870;50.944;6.932;2023-05-07T13:53:34;23.90;28.40
7341;DHT22;6870;50.944;6.932;2023-05-07T13:56:04;23.90;28.40
7341;DHT22;6870;50.944;6.932;2023-05-07T13:58:32;23.80;28.30
7341;DHT22;6870;50.944;6.932;2023-05-07T14:01:05;23.90;28.40
7341;DHT22;6870;50.944;6.932;2023-05-07T14:03:34;23.90;28.40
7341;DHT22;6870;50.944;6.932;2023-05-07T14:06:04;24.00;28.10
7341;DHT22;6870;50.944;6.932;2023-05-07T14:08:32;24.00;28.50
7341;DHT22;6870;50.944;6.932;2023-05-07T14:11:00;24.00;28.50
7341;DHT22;6870;50.944;6.932;2023-05-07T14:13:30;24.20;28.70
7341;DHT22;6870;50.944;6.932;2023-05-07T14:15:58;23.90;28.50
7341;DHT22;6870;50.944;6.932;2023-05-07T14:18:27;24.10;28.60
7341;DHT22;6870;50.944;6.932;2023-05-07T14:20:55;24.00;28.50
7341;DHT22;6870;50.944;6.932;2023-05-07T14:23:23;24.00;28.60
7341;DHT22;6870;50.944;6.932;2023-05-07T14:25:53;23.90;28.50
7341;DHT22;6870;50.944;6.932;2023-05-07T14:28:21;24.10;28.70
7341;DHT22;6870;50.944;6.932;2023-05-07T14:30:50;24.10;28.60
7341;DHT22;6870;50.944;6.932;2023-05-07T14:33:18;23.90;28.50
7341;DHT22;6870;50.944;6.932;2023-05-07T14:35:46;24.00;28.60
7341;DHT22;6870;50.944;6.932;2023-05-07T14:38:15;23.90;28.50
7341;DHT22;6870;50.944;6.932;2023-05-07T14:40:45;24.20;28.60
7341;DHT22;6870;50.944;6.932;2023-05-07T14:43:13;23.90;28.50
7341;DHT22;6870;50.944;6.932;2023-05-07T14:45:41;23.90;28.50
7341;DHT22;6870;50.944;6.932;2023-05-07T14:48:10;23.90;28.50
7341;DHT22;6870;50.944;6.932;2023-05-07T14:50:41;24.10;28.70
7341;DHT22;6870;50.944;6.932;2023-05-07T14:53:09;23.80;28.50
7341;DHT22;6870;50.944;6.932;2023-05-07T14:55:38;24.00;28.70
7341;DHT22;6870;50.944;6.932;2023-05-07T14:58:06;23.90;28.70
7341;DHT22;6870;50.944;6.932;2023-05-07T15:00:34;23.90;28.50
7341;DHT22;6870;50.944;6.932;2023-05-07T15:03:06;24.00;28.90
7341;DHT22;6870;50.944;6.932;2023-05-07T15:05:38;23.80;28.70
7341;DHT22;6870;50.944;6.932;2023-05-07T15:08:06;23.90;28.80
7341;DHT22;6870;50.944;6.932;2023-05-07T15:10:35;23.70;28.70
7341;DHT22;6870;50.944;6.932;2023-05-07T15:13:07;24.10;28.90
7341;DHT22;6870;50.944;6.932;2023-05-07T15:15:40;23.80;28.80
7341;DHT22;6870;50.944;6.932;2023-05-07T15:18:09;24.00;28.90
7341;DHT22;6870;50.944;6.932;2023-05-07T15:20:38;23.90;28.80
7341;DHT22;6870;50.944;6.932;2023-05-07T15:23:07;23.90;28.80
7341;DHT22;6870;50.944;6.932;2023-05-07T15:25:38;24.20;29.00
7341;DHT22;6870;50.944;6.932;2023-05-07T15:28:06;23.80;28.70
7341;DHT22;6870;50.944;6.932;2023-05-07T15:30:35;23.90;28.80
7341;DHT22;6870;50.944;6.932;2023-05-07T15:33:03;24.10;28.90
7341;DHT22;6870;50.944;6.932;2023-05-07T15:35:32;24.00;28.50
7341;DHT22;6870;50.944;6.932;2023-05-07T15:38:01;23.90;28.70
7341;DHT22;6870;50.944;6.932;2023-05-07T15:40:30;24.10;28.90
7341;DHT22;6870;50.944;6.932;2023-05-07T15:42:59;23.90;28.80
7341;DHT22;6870;50.944;6.932;2023-05-07T15:45:28;24.10;28.90
7341;DHT22;6870;50.944;6.932;2023-05-07T15:47:56;24.00;28.80
7341;DHT22;6870;50.944;6.932;2023-05-07T15:50:25;24.00;28.70
7341;DHT22;6870;50.944;6.932;2023-05-07T15:52:53;24.30;29.10
7341;DHT22;6870;50.944;6.932;2023-05-07T15:55:23;24.10;28.90
7341;DHT22;6870;50.944;6.932;2023-05-07T15:57:51;23.90;28.70
7341;DHT22;6870;50.944;6.932;2023-05-07T16:00:20;24.10;29.00
7341;DHT22;6870;50.944;6.932;2023-05-07T16:02:49;24.10;29.00
7341;DHT22;6870;50.944;6.932;2023-05-07T16:05:17;23.80;28.60
7341;DHT22;6870;50.944;6.932;2023-05-07T16:07:45;24.10;29.00
7341;DHT22;6870;50.944;6.932;2023-05-07T16:10:14;24.10;29.00
7341;DHT22;6870;50.944;6.932;2023-05-07T16:12:44;24.40;29.20
7341;DHT22;6870;50.944;6.932;2023-05-07T16:15:12;24.00;28.90
7341;DHT22;6870;50.944;6.932;2023-05-07T16:17:40;24.00;28.90